Time;durP1;ratioP1;P1;durP2;ratioP2;P2;SDS_P1;SDS_P2;PMS_P1;PMS_P2;Temp;Humidity;BMP_temperature;BMP_pressure;BME280_temperature;BME280_humidity;BME280_pressure;Samples;Min_cycle;Max_cycle;Signal;HPM_P1;HPM_P2
2022/08/17 00:01:52;;;;;;;13.07;9.90;;;;;;;;;;5074164;28;20036;-67
2022/08/17 00:04:18;;;;;;;13.18;9.73;;;;;;;;;;5074387;28;20523;-67
2022/08/17 00:06:43;;;;;;;12.77;9.30;;;;;;;;;;5073512;28;20356;-67
2022/08/17 00:09:09;;;;;;;12.25;10.00;;;;;;;;;;5074131;28;20028;-66
2022/08/17 00:11:39;;;;;;;13.63;10.48;;;;;;;;;;5074078;28;20036;-66
2022/08/17 00:14:10;;;;;;;14.43;10.32;;;;;;;;;;5074116;28;20089;-65
2022/08/17 00:16:40;;;;;;;12.80;10.05;;;;;;;;;;5074089;28;20090;-65
2022/08/17 00:19:09;;;;;;;12.77;9.57;;;;;;;;;;5074026;28;20032;-67
2022/08/17 00:21:37;;;;;;;13.07;10.15;;;;;;;;;;5073851;28;20044;-67
2022/08/17 00:24:03;;;;;;;12.52;9.95;;;;;;;;;;5073537;28;20032;-67
2022/08/17 00:26:29;;;;;;;12.05;10.00;;;;;;;;;;5073853;28;20033;-67
2022/08/17 00:28:54;;;;;;;11.45;9.00;;;;;;;;;;5073687;28;20036;-66
2022/08/17 00:31:21;;;;;;;12.23;9.57;;;;;;;;;;5073733;28;20028;-67
2022/08/17 00:33:47;;;;;;;10.40;9.20;;;;;;;;;;5073489;28;20100;-66
2022/08/17 00:36:14;;;;;;;13.55;9.70;;;;;;;;;;5073555;28;20099;-66
2022/08/17 00:38:40;;;;;;;14.95;9.57;;;;;;;;;;5073297;28;20027;-66
2022/08/17 00:41:15;;;;;;;13.05;9.23;;;;;;;;;;5073304;28;20024;-66
2022/08/17 00:43:48;;;;;;;15.32;9.90;;;;;;;;;;5073385;28;20016;-67
2022/08/17 00:46:17;;;;;;;13.60;10.35;;;;;;;;;;5073371;28;20031;-66
2022/08/17 00:48:43;;;;;;;12.70;10.00;;;;;;;;;;5073274;28;20029;-67
2022/08/17 00:51:18;;;;;;;14.70;9.77;;;;;;;;;;5073137;28;20033;-66
2022/08/17 00:53:50;;;;;;;15.15;10.13;;;;;;;;;;5072995;28;20032;-66
2022/08/17 00:56:23;;;;;;;11.82;8.70;;;;;;;;;;5073211;28;20067;-67
2022/08/17 00:58:51;;;;;;;13.68;10.07;;;;;;;;;;5073090;28;20028;-66
2022/08/17 01:01:16;;;;;;;12.07;9.20;;;;;;;;;;5073076;28;20081;-67
2022/08/17 01:03:42;;;;;;;13.15;9.85;;;;;;;;;;5073023;28;20531;-66
2022/08/17 01:06:09;;;;;;;11.15;9.38;;;;;;;;;;5073039;28;20107;-67
2022/08/17 01:08:35;;;;;;;14.63;9.95;;;;;;;;;;5072845;28;20032;-66
2022/08/17 01:11:01;;;;;;;15.80;10.15;;;;;;;;;;5072710;28;20082;-67
2022/08/17 01:13:31;;;;;;;11.13;9.93;;;;;;;;;;5072818;28;20028;-66
2022/08/17 01:16:02;;;;;;;11.80;9.93;;;;;;;;;;5072863;28;20047;-66
2022/08/17 01:18:28;;;;;;;12.02;10.07;;;;;;;;;;5072160;28;20032;-66
2022/08/17 01:20:56;;;;;;;11.95;9.77;;;;;;;;;;5072508;28;20024;-66
2022/08/17 01:23:23;;;;;;;12.05;10.18;;;;;;;;;;5072687;28;20036;-66
2022/08/17 01:25:52;;;;;;;12.23;10.82;;;;;;;;;;5072742;28;20050;-67
2022/08/17 01:28:19;;;;;;;15.50;11.38;;;;;;;;;;5072801;28;20135;-66
2022/08/17 01:30:45;;;;;;;15.82;11.20;;;;;;;;;;5072385;28;20169;-67
2022/08/17 01:33:11;;;;;;;15.65;11.35;;;;;;;;;;5072819;28;20016;-66
2022/08/17 01:35:38;;;;;;;14.05;11.32;;;;;;;;;;5072226;28;20441;-66
2022/08/17 01:38:04;;;;;;;15.18;10.73;;;;;;;;;;5072491;28;20052;-66
2022/08/17 01:40:41;;;;;;;13.07;11.55;;;;;;;;;;5072586;28;20036;-67
2022/08/17 01:43:10;;;;;;;15.15;11.13;;;;;;;;;;5072583;28;20028;-66
2022/08/17 01:45:42;;;;;;;16.35;11.50;;;;;;;;;;5072261;28;20081;-66
2022/08/17 01:48:08;;;;;;;13.20;11.48;;;;;;;;;;5072378;28;20028;-66
2022/08/17 01:50:36;;;;;;;18.63;11.27;;;;;;;;;;5072041;28;20052;-65
2022/08/17 01:53:07;;;;;;;17.17;11.65;;;;;;;;;;5072112;28;20532;-66
2022/08/17 01:56:04;;;;;;;13.82;11.32;;;;;;;;;;5072368;28;20655;-66
2022/08/17 01:58:32;;;;;;;13.02;11.48;;;;;;;;;;5070564;28;20032;-66
2022/08/17 02:00:58;;;;;;;15.05;11.35;;;;;;;;;;5072140;28;20025;-64
2022/08/17 02:03:24;;;;;;;20.13;11.88;;;;;;;;;;5072152;28;20027;-67
2022/08/17 02:05:52;;;;;;;18.98;11.65;;;;;;;;;;5072045;28;20037;-65
2022/08/17 02:08:19;;;;;;;15.85;12.40;;;;;;;;;;5072282;28;20486;-67
2022/08/17 02:10:45;;;;;;;16.05;11.95;;;;;;;;;;5072057;28;20033;-66
2022/08/17 02:13:11;;;;;;;15.95;11.55;;;;;;;;;;5072162;28;20367;-66
2022/08/17 02:15:37;;;;;;;16.70;11.90;;;;;;;;;;5072177;28;20025;-66
2022/08/17 02:18:04;;;;;;;15.68;11.85;;;;;;;;;;5072145;28;20035;-66
2022/08/17 02:20:30;;;;;;;15.02;11.82;;;;;;;;;;5071807;28;20475;-66
2022/08/17 02:22:59;;;;;;;16.23;12.10;;;;;;;;;;5071942;28;20032;-66
2022/08/17 02:25:25;;;;;;;18.48;12.38;;;;;;;;;;5071982;28;20490;-66
2022/08/17 02:27:50;;;;;;;19.25;12.27;;;;;;;;;;5072054;28;20032;-66
2022/08/17 02:30:16;;;;;;;20.73;12.20;;;;;;;;;;5075317;28;20035;-66
2022/08/17 02:32:42;;;;;;;15.98;11.93;;;;;;;;;;5063837;28;20028;-66
2022/08/17 02:35:08;;;;;;;14.88;11.82;;;;;;;;;;5055690;28;20033;-66
2022/08/17 02:37:34;;;;;;;16.25;11.50;;;;;;;;;;5055900;28;20074;-66
2022/08/17 02:40:00;;;;;;;17.45;12.15;;;;;;;;;;5055623;28;20025;-67
2022/08/17 02:42:32;;;;;;;25.55;12.65;;;;;;;;;;5055581;28;20170;-65
2022/08/17 02:44:59;;;;;;;17.90;12.77;;;;;;;;;;5055670;28;20025;-66
2022/08/17 02:47:26;;;;;;;18.90;12.52;;;;;;;;;;5055820;28;20100;-68
2022/08/17 02:49:53;;;;;;;25.08;12.75;;;;;;;;;;5055176;28;20448;-66
2022/08/17 02:52:19;;;;;;;15.80;12.60;;;;;;;;;;5055500;28;20095;-66
2022/08/17 02:54:44;;;;;;;19.83;11.68;;;;;;;;;;5055513;28;20106;-66
2022/08/17 02:57:10;;;;;;;14.95;11.82;;;;;;;;;;5055464;28;20029;-66
2022/08/17 02:59:37;;;;;;;17.65;12.50;;;;;;;;;;5055489;28;20033;-67
2022/08/17 03:02:05;;;;;;;23.30;12.70;;;;;;;;;;5055408;28;20083;-66
2022/08/17 03:04:31;;;;;;;22.20;13.73;;;;;;;;;;5055089;28;20033;-64
2022/08/17 03:06:57;;;;;;;16.90;12.55;;;;;;;;;;5053930;28;20524;-66
2022/08/17 03:09:22;;;;;;;18.52;12.93;;;;;;;;;;5055197;28;20028;-66
2022/08/17 03:11:50;;;;;;;16.38;12.57;;;;;;;;;;5055123;28;20036;-66
2022/08/17 03:14:17;;;;;;;23.65;13.75;;;;;;;;;;5055157;28;20029;-66
2022/08/17 03:16:42;;;;;;;14.52;12.68;;;;;;;;;;5055092;28;20399;-66
2022/08/17 03:19:08;;;;;;;21.50;13.23;;;;;;;;;;5055025;28;20033;-67
2022/08/17 03:21:33;;;;;;;19.73;12.93;;;;;;;;;;5055066;28;20037;-66
2022/08/17 03:23:59;;;;;;;18.77;13.15;;;;;;;;;;5055078;28;20024;-66
2022/08/17 03:26:26;;;;;;;16.92;12.65;;;;;;;;;;5054955;28;20065;-67
2022/08/17 03:28:51;;;;;;;23.85;12.70;;;;;;;;;;5054948;28;20029;-66
2022/08/17 03:31:17;;;;;;;19.92;13.20;;;;;;;;;;5054841;28;20136;-66
2022/08/17 03:33:43;;;;;;;19.38;13.27;;;;;;;;;;5054514;28;20036;-67
2022/08/17 03:36:09;;;;;;;24.83;13.63;;;;;;;;;;5054811;28;20021;-66
2022/08/17 03:38:34;;;;;;;26.42;14.57;;;;;;;;;;5054576;28;20029;-66
2022/08/17 03:41:00;;;;;;;22.13;13.80;;;;;;;;;;5053442;28;20379;-66
2022/08/17 03:43:30;;;;;;;24.20;13.65;;;;;;;;;;5054459;28;20204;-67
2022/08/17 03:57:06;;;;;;;16.60;13.02;;;;;;;;;;5054553;28;20067;-66
2022/08/17 03:59:32;;;;;;;18.15;12.93;;;;;;;;;;5054358;28;20115;-65
2022/08/17 04:02:07;;;;;;;17.73;12.75;;;;;;;;;;5053952;28;20432;-66
2022/08/17 04:04:34;;;;;;;20.42;12.32;;;;;;;;;;5054334;28;20435;-66
2022/08/17 04:06:59;;;;;;;15.65;11.95;;;;;;;;;;5054072;28;20432;-67
2022/08/17 04:09:25;;;;;;;24.95;13.18;;;;;;;;;;5054240;28;20108;-67
2022/08/17 04:11:50;;;;;;;22.65;12.68;;;;;;;;;;5053978;28;20029;-66
2022/08/17 04:14:16;;;;;;;23.85;12.52;;;;;;;;;;5053947;28;20029;-66
2022/08/17 04:16:41;;;;;;;21.83;13.50;;;;;;;;;;5053799;28;20499;-66
2022/08/17 04:19:07;;;;;;;17.92;13.00;;;;;;;;;;5053978;28;20369;-66
2022/08/17 04:21:33;;;;;;;20.55;13.18;;;;;;;;;;5053806;28;20029;-66
2022/08/17 04:23:59;;;;;;;19.58;12.98;;;;;;;;;;5053645;28;20387;-67
2022/08/17 04:26:26;;;;;;;21.88;13.75;;;;;;;;;;5053829;28;20114;-66
2022/08/17 04:28:52;;;;;;;21.25;14.23;;;;;;;;;;5053599;28;20033;-66
2022/08/17 04:31:17;;;;;;;18.20;13.90;;;;;;;;;;5053466;28;20036;-66
2022/08/17 04:33:44;;;;;;;18.67;13.38;;;;;;;;;;5053649;28;20086;-66
2022/08/17 04:36:13;;;;;;;17.83;12.48;;;;;;;;;;5053673;28;20025;-66
2022/08/17 04:38:40;;;;;;;23.10;15.50;;;;;;;;;;5053683;28;20028;-65
2022/08/17 04:43:54;;;;;;;16.23;12.75;;;;;;;;;;5053361;28;20032;-66
2022/08/17 04:46:23;;;;;;;18.85;12.63;;;;;;;;;;5053506;28;20078;-66
2022/08/17 04:48:51;;;;;;;20.70;13.35;;;;;;;;;;5053325;28;20035;-66
2022/08/17 04:51:27;;;;;;;22.25;13.35;;;;;;;;;;5052894;28;20115;-65
2022/08/17 04:53:57;;;;;;;22.38;13.75;;;;;;;;;;5053259;28;20025;-66
2022/08/17 04:56:24;;;;;;;21.55;13.75;;;;;;;;;;5053385;28;20028;-66
2022/08/17 04:58:53;;;;;;;22.05;14.18;;;;;;;;;;5052984;28;20025;-66
2022/08/17 05:01:20;;;;;;;20.27;14.10;;;;;;;;;;5053266;28;20028;-66
2022/08/17 05:03:46;;;;;;;26.83;16.23;;;;;;;;;;5053053;28;20100;-66
2022/08/17 05:06:12;;;;;;;23.60;15.60;;;;;;;;;;5053202;28;20033;-66
2022/08/17 05:08:38;;;;;;;28.88;16.55;;;;;;;;;;5053090;28;20029;-67
2022/08/17 05:11:04;;;;;;;25.73;16.77;;;;;;;;;;5052934;28;20361;-66
2022/08/17 05:13:29;;;;;;;26.20;17.98;;;;;;;;;;5052721;28;20033;-67
2022/08/17 05:15:59;;;;;;;28.92;17.80;;;;;;;;;;5052778;28;20021;-66
2022/08/17 05:18:25;;;;;;;27.80;17.50;;;;;;;;;;5053026;28;20037;-66
2022/08/17 05:20:51;;;;;;;27.92;17.20;;;;;;;;;;5052829;28;20017;-67
2022/08/17 05:23:18;;;;;;;26.23;16.95;;;;;;;;;;5052561;28;20025;-66
2022/08/17 05:25:47;;;;;;;21.05;16.17;;;;;;;;;;5052748;28;20480;-66
2022/08/17 05:28:14;;;;;;;24.83;16.10;;;;;;;;;;5052682;28;20375;-66
2022/08/17 05:30:41;;;;;;;20.38;16.55;;;;;;;;;;5050935;28;20132;-67
2022/08/17 05:33:11;;;;;;;21.63;15.93;;;;;;;;;;5052458;28;20033;-66
2022/08/17 05:35:41;;;;;;;22.13;14.90;;;;;;;;;;5052611;28;20059;-66
2022/08/17 05:38:07;;;;;;;24.60;16.08;;;;;;;;;;5051233;28;20051;-66
2022/08/17 05:40:33;;;;;;;21.85;14.80;;;;;;;;;;5052526;28;20396;-66
2022/08/17 05:43:19;;;;;;;25.45;16.27;;;;;;;;;;5051983;28;20123;-66
2022/08/17 05:45:51;;;;;;;27.27;16.55;;;;;;;;;;5052282;28;20055;-65
2022/08/17 05:48:17;;;;;;;23.98;15.02;;;;;;;;;;5052585;28;20191;-66
2022/08/17 05:51:09;;;;;;;21.45;14.63;;;;;;;;;;5052112;28;20100;-66
2022/08/17 05:53:53;;;;;;;20.65;15.43;;;;;;;;;;5052208;28;20500;-66
2022/08/17 05:56:30;;;;;;;21.15;14.98;;;;;;;;;;5052452;28;20087;-66
2022/08/17 05:59:08;;;;;;;28.60;14.88;;;;;;;;;;5052079;28;20040;-66
2022/08/17 06:02:16;;;;;;;17.40;14.48;;;;;;;;;;5051101;28;20033;-67
2022/08/17 06:04:59;;;;;;;21.70;15.02;;;;;;;;;;5051480;28;20128;-67
2022/08/17 06:07:40;;;;;;;23.75;14.45;;;;;;;;;;5052283;28;20021;-67
2022/08/17 06:10:13;;;;;;;20.60;15.13;;;;;;;;;;5051984;28;20033;-66
2022/08/17 06:12:54;;;;;;;24.52;14.95;;;;;;;;;;5051890;28;20503;-65
2022/08/17 06:15:23;;;;;;;27.70;14.88;;;;;;;;;;5052165;28;20500;-66
2022/08/17 06:17:54;;;;;;;22.58;14.70;;;;;;;;;;5052142;28;20074;-67
2022/08/17 06:20:21;;;;;;;22.23;13.25;;;;;;;;;;5052143;28;20036;-66
2022/08/17 06:22:51;;;;;;;17.23;13.77;;;;;;;;;;5051923;28;20025;-65
2022/08/17 06:25:25;;;;;;;21.67;13.73;;;;;;;;;;5052007;28;20124;-66
2022/08/17 06:28:08;;;;;;;20.92;13.43;;;;;;;;;;5052161;28;20079;-65
2022/08/17 06:30:47;;;;;;;18.75;13.13;;;;;;;;;;5052013;28;20029;-68
2022/08/17 06:33:20;;;;;;;18.83;12.88;;;;;;;;;;5052026;28;20231;-64
2022/08/17 06:36:23;;;;;;;18.27;12.10;;;;;;;;;;5051990;28;20033;-66
2022/08/17 06:38:52;;;;;;;15.00;10.98;;;;;;;;;;5051621;28;20502;-65
2022/08/17 06:41:30;;;;;;;17.55;11.93;;;;;;;;;;5056622;28;20377;-66
2022/08/17 06:44:27;;;;;;;17.63;11.18;;;;;;;;;;5070431;28;20396;-64
2022/08/17 06:47:02;;;;;;;17.52;11.57;;;;;;;;;;5070611;28;20032;-65
2022/08/17 06:49:39;;;;;;;17.42;10.13;;;;;;;;;;5071936;28;20391;-65
2022/08/17 06:52:20;;;;;;;17.20;10.82;;;;;;;;;;5071426;28;20140;-63
2022/08/17 06:54:58;;;;;;;19.25;10.93;;;;;;;;;;5071283;28;20032;-62
2022/08/17 06:57:30;;;;;;;17.67;10.88;;;;;;;;;;5071755;28;20086;-63
2022/08/17 07:00:07;;;;;;;17.40;10.65;;;;;;;;;;5071583;28;20029;-66
2022/08/17 07:03:11;;;;;;;15.05;9.98;;;;;;;;;;5071663;28;20024;-64
2022/08/17 07:05:41;;;;;;;13.70;9.38;;;;;;;;;;5071709;28;20112;-64
2022/08/17 07:08:48;;;;;;;15.23;9.98;;;;;;;;;;5071652;28;20103;-66
2022/08/17 07:11:18;;;;;;;12.55;9.25;;;;;;;;;;5071324;28;20037;-65
2022/08/17 07:13:53;;;;;;;13.70;9.13;;;;;;;;;;5071428;28;20544;-66
2022/08/17 07:16:23;;;;;;;14.68;9.50;;;;;;;;;;5073245;28;20395;-65
2022/08/17 07:18:51;;;;;;;12.10;9.00;;;;;;;;;;5074914;28;20048;-65
2022/08/17 07:21:32;;;;;;;12.52;8.05;;;;;;;;;;5075086;28;20199;-66
2022/08/17 07:24:05;;;;;;;15.75;8.52;;;;;;;;;;5074713;28;20027;-66
2022/08/17 07:26:31;;;;;;;12.90;7.13;;;;;;;;;;5074853;28;20020;-66
2022/08/17 07:28:58;;;;;;;11.82;7.13;;;;;;;;;;5074949;28;20026;-66
2022/08/17 07:31:27;;;;;;;11.07;7.55;;;;;;;;;;5074792;28;20029;-64
2022/08/17 07:34:13;;;;;;;11.63;7.05;;;;;;;;;;5074769;28;20028;-66
2022/08/17 07:36:42;;;;;;;8.25;6.70;;;;;;;;;;5074798;28;20021;-64
2022/08/17 07:39:08;;;;;;;;;;;;;;;;;;5075029;28;20494;-67
2022/08/17 07:41:38;;;;;;;8.95;6.20;;;;;;;;;;5074707;28;19916;-66
2022/08/17 07:44:12;;;;;;;11.13;6.82;;;;;;;;;;5074445;28;20040;-66
2022/08/17 07:49:43;;;;;;;10.00;6.43;;;;;;;;;;5054690;28;20117;-66
2022/08/17 07:52:27;;;;;;;8.75;6.45;;;;;;;;;;5054248;28;20511;-64
2022/08/17 07:54:53;;;;;;;13.05;6.75;;;;;;;;;;5054133;28;20112;-66
2022/08/17 07:57:18;;;;;;;10.55;7.13;;;;;;;;;;5054315;28;20049;-66
2022/08/17 07:59:59;;;;;;;15.52;7.20;;;;;;;;;;5054242;28;20056;-66
2022/08/17 08:02:33;;;;;;;11.85;7.18;;;;;;;;;;5054306;28;20029;-66
2022/08/17 08:05:03;;;;;;;9.35;6.85;;;;;;;;;;5054204;28;20395;-66
2022/08/17 08:07:38;;;;;;;11.20;7.35;;;;;;;;;;5054101;28;20017;-66
2022/08/17 08:10:12;;;;;;;10.52;6.18;;;;;;;;;;5054085;28;20120;-66
2022/08/17 08:12:45;;;;;;;9.52;6.82;;;;;;;;;;5054086;28;20021;-66
2022/08/17 08:15:33;;;;;;;10.35;7.18;;;;;;;;;;5054148;28;20049;-67
2022/08/17 08:18:01;;;;;;;13.73;7.78;;;;;;;;;;5054270;28;20456;-66
2022/08/17 08:20:44;;;;;;;12.15;7.90;;;;;;;;;;5053953;28;20029;-65
2022/08/17 08:23:19;;;;;;;13.45;8.27;;;;;;;;;;5053757;28;20025;-65
2022/08/17 08:25:55;;;;;;;12.98;7.95;;;;;;;;;;5053961;28;20107;-66
2022/08/17 08:28:31;;;;;;;10.07;7.65;;;;;;;;;;5053242;28;20032;-66
2022/08/17 08:31:36;;;;;;;13.43;7.75;;;;;;;;;;5053514;28;20120;-66
2022/08/17 08:34:01;;;;;;;11.15;7.82;;;;;;;;;;5049758;28;20528;-66
2022/08/17 08:36:58;;;;;;;9.38;7.95;;;;;;;;;;5053465;28;20021;-66
2022/08/17 08:39:43;;;;;;;10.90;7.35;;;;;;;;;;5053481;28;20124;-65
2022/08/17 08:42:28;;;;;;;11.00;7.97;;;;;;;;;;5053114;28;20502;-66
2022/08/17 08:45:03;;;;;;;10.48;7.53;;;;;;;;;;5052821;28;20391;-66
2022/08/17 08:48:21;;;;;;;16.83;8.13;;;;;;;;;;5053220;28;20086;-66
2022/08/17 08:50:51;;;;;;;14.80;9.10;;;;;;;;;;5052115;28;20048;-66
2022/08/17 08:53:28;;;;;;;15.95;9.52;;;;;;;;;;5053112;28;20041;-65
2022/08/17 08:55:54;;;;;;;86.95;19.42;;;;;;;;;;5053205;28;20089;-64
2022/08/17 08:58:39;;;;;;;48.08;15.82;;;;;;;;;;5053353;28;20057;-66
2022/08/17 09:01:31;;;;;;;17.92;9.13;;;;;;;;;;5053333;28;20029;-65
2022/08/17 09:04:34;;;;;;;15.38;8.68;;;;;;;;;;5030915;28;20375;-66
2022/08/17 09:07:25;;;;;;;30.35;10.25;;;;;;;;;;5030524;28;20416;-66
2022/08/17 09:10:33;;;;;;;42.28;14.52;;;;;;;;;;5031033;28;20076;-66
2022/08/17 09:13:13;;;;;;;25.02;9.70;;;;;;;;;;4991274;28;20038;-66
2022/08/17 09:15:47;;;;;;;28.60;9.25;;;;;;;;;;4991289;28;20044;-65
2022/08/17 09:18:20;;;;;;;20.95;7.80;;;;;;;;;;4991343;28;20045;-65
2022/08/17 09:20:55;;;;;;;25.55;9.98;;;;;;;;;;4991027;28;20575;-64
2022/08/17 09:23:35;;;;;;;13.23;7.25;;;;;;;;;;4991331;28;20089;-65
2022/08/17 09:26:29;;;;;;;22.65;9.32;;;;;;;;;;4991152;28;20413;-66
2022/08/17 09:29:00;;;;;;;10.95;8.30;;;;;;;;;;4990944;28;20065;-66
2022/08/17 09:31:45;;;;;;;14.60;9.15;;;;;;;;;;4991032;28;20041;-65
2022/08/17 09:34:15;;;;;;;19.55;10.20;;;;;;;;;;4990914;28;20042;-66
2022/08/17 09:37:17;;;;;;;16.00;8.43;;;;;;;;;;4991080;28;20078;-65
2022/08/17 09:40:24;;;;;;;13.35;7.18;;;;;;;;;;4951902;28;20061;-65
2022/08/17 09:43:08;;;;;;;20.27;8.77;;;;;;;;;;4988178;28;20050;-65
2022/08/17 09:45:56;;;;;;;19.27;7.88;;;;;;;;;;4991172;28;20030;-66
2022/08/17 09:49:00;;;;;;;14.43;7.25;;;;;;;;;;5007221;28;20045;-66
2022/08/17 09:51:53;;;;;;;13.48;7.63;;;;;;;;;;4990708;28;20042;-66
2022/08/17 09:54:34;;;;;;;10.48;6.32;;;;;;;;;;4986832;28;20125;-66
2022/08/17 09:57:24;;;;;;;12.52;7.43;;;;;;;;;;4990727;28;20654;-66
2022/08/17 10:00:25;;;;;;;7.93;5.75;;;;;;;;;;4991011;28;20042;-66
2022/08/17 10:03:07;;;;;;;10.82;6.63;;;;;;;;;;4990591;28;20441;-65
2022/08/17 10:05:44;;;;;;;10.63;6.80;;;;;;;;;;4990805;28;20084;-65
2022/08/17 10:08:21;;;;;;;11.88;5.90;;;;;;;;;;4990786;28;20390;-65
2022/08/17 10:11:17;;;;;;;9.45;6.22;;;;;;;;;;4990510;28;20039;-67
2022/08/17 10:14:04;;;;;;;10.10;5.45;;;;;;;;;;4982416;28;20034;-66
2022/08/17 10:16:48;;;;;;;6.95;5.35;;;;;;;;;;5012845;28;20033;-66
2022/08/17 10:19:20;;;;;;;8.07;5.20;;;;;;;;;;5029766;28;20117;-65
2022/08/17 10:27:37;;;;;;;9.90;5.82;;;;;;;;;;5035048;28;20040;-66
2022/08/17 10:30:04;;;;;;;8.48;5.57;;;;;;;;;;5051928;28;20055;-65
2022/08/17 10:33:05;;;;;;;8.90;5.75;;;;;;;;;;5057168;28;20028;-65
2022/08/17 10:35:43;;;;;;;12.98;6.20;;;;;;;;;;5051637;28;20369;-67
2022/08/17 10:38:20;;;;;;;6.50;4.90;;;;;;;;;;5051894;28;20034;-64
2022/08/17 10:41:02;;;;;;;7.57;4.63;;;;;;;;;;5051645;28;20551;-66
2022/08/17 10:43:43;;;;;;;9.23;4.85;;;;;;;;;;5052053;28;20100;-65
2022/08/17 10:46:33;;;;;;;8.70;5.05;;;;;;;;;;5051941;28;20098;-66
2022/08/17 10:49:16;;;;;;;5.60;4.85;;;;;;;;;;5051823;28;20445;-65
2022/08/17 10:51:46;;;;;;;5.47;4.93;;;;;;;;;;5054954;28;20040;-65
2022/08/17 10:54:23;;;;;;;7.15;5.20;;;;;;;;;;5055587;28;20029;-65
2022/08/17 10:56:54;;;;;;;7.00;4.50;;;;;;;;;;5055421;28;20060;-66
2022/08/17 10:59:34;;;;;;;5.00;4.50;;;;;;;;;;5055514;28;20029;-65
2022/08/17 11:02:16;;;;;;;8.00;4.32;;;;;;;;;;5053882;28;20438;-66
2022/08/17 11:05:06;;;;;;;12.15;4.43;;;;;;;;;;5055018;28;20032;-66
2022/08/17 11:07:42;;;;;;;5.20;4.70;;;;;;;;;;5055508;28;20036;-66
2022/08/17 11:10:32;;;;;;;8.05;4.47;;;;;;;;;;5055264;28;20049;-66
2022/08/17 11:13:30;;;;;;;7.05;5.10;;;;;;;;;;5054946;28;20586;-65
2022/08/17 11:16:10;;;;;;;7.70;5.03;;;;;;;;;;5055100;28;20047;-65
2022/08/17 11:18:44;;;;;;;7.07;4.55;;;;;;;;;;5055312;28;20447;-66
2022/08/17 11:21:22;;;;;;;7.53;4.20;;;;;;;;;;5055775;28;20036;-66
2022/08/17 11:23:57;;;;;;;6.55;3.75;;;;;;;;;;5055128;28;20079;-66
2022/08/17 11:26:29;;;;;;;7.10;4.70;;;;;;;;;;5054971;28;20491;-64
2022/08/17 11:29:15;;;;;;;15.60;4.90;;;;;;;;;;5054914;28;20029;-65
2022/08/17 11:31:45;;;;;;;8.10;4.70;;;;;;;;;;5055022;28;20021;-64
2022/08/17 11:34:22;;;;;;;8.48;4.25;;;;;;;;;;5054793;28;20032;-65
2022/08/17 11:37:15;;;;;;;6.75;4.53;;;;;;;;;;5054685;28;20453;-67
2022/08/17 11:40:10;;;;;;;8.52;4.95;;;;;;;;;;5054954;28;20037;-65
2022/08/17 11:43:12;;;;;;;4.95;3.97;;;;;;;;;;5054490;28;20025;-65
2022/08/17 11:46:09;;;;;;;8.05;4.38;;;;;;;;;;5054493;28;20021;-66
2022/08/17 11:51:34;;;;;;;7.57;4.47;;;;;;;;;;5054410;28;20043;-64
2022/08/17 11:54:23;;;;;;;5.90;4.93;;;;;;;;;;5054545;28;20476;-65
2022/08/17 11:56:50;;;;;;;6.88;4.60;;;;;;;;;;5050439;28;20087;-66
2022/08/17 11:59:35;;;;;;;6.50;3.53;;;;;;;;;;5054250;28;20447;-65
2022/08/17 12:02:33;;;;;;;6.07;4.15;;;;;;;;;;5053581;28;20035;-66
2022/08/17 12:05:26;;;;;;;4.95;3.80;;;;;;;;;;5051881;28;20508;-66
2022/08/17 12:08:11;;;;;;;8.85;4.65;;;;;;;;;;5051545;28;20130;-66
2022/08/17 12:11:01;;;;;;;8.48;4.40;;;;;;;;;;5054185;28;20037;-65
2022/08/17 12:13:29;;;;;;;8.77;4.70;;;;;;;;;;5053571;28;20039;-67
2022/08/17 12:15:57;;;;;;;11.68;5.00;;;;;;;;;;5054115;28;20036;-67
2022/08/17 12:18:34;;;;;;;7.70;4.43;;;;;;;;;;5054029;28;20028;-67
2022/08/17 12:21:25;;;;;;;7.32;4.45;;;;;;;;;;5053893;28;20120;-67
2022/08/17 12:24:00;;;;;;;8.73;4.60;;;;;;;;;;5054032;28;20025;-67
2022/08/17 12:26:32;;;;;;;8.23;4.40;;;;;;;;;;5052661;28;20424;-66
2022/08/17 12:29:01;;;;;;;6.07;4.13;;;;;;;;;;5053601;28;20029;-67
2022/08/17 12:31:33;;;;;;;8.05;4.40;;;;;;;;;;5055700;28;20029;-67
2022/08/17 12:33:59;;;;;;;5.63;4.00;;;;;;;;;;5073585;28;20040;-67
2022/08/17 12:36:27;;;;;;;11.27;4.35;;;;;;;;;;5073862;28;20397;-67
2022/08/17 12:39:00;;;;;;;6.80;4.40;;;;;;;;;;5073700;28;20475;-65
2022/08/17 12:41:45;;;;;;;6.70;4.35;;;;;;;;;;5066817;28;20017;-66
2022/08/17 12:44:20;;;;;;;6.10;4.13;;;;;;;;;;5069475;28;20074;-67
2022/08/17 12:47:09;;;;;;;7.35;3.80;;;;;;;;;;5073318;28;20360;-65
2022/08/17 12:49:41;;;;;;;6.80;4.30;;;;;;;;;;5073644;28;20060;-66
2022/08/17 12:52:18;;;;;;;6.88;4.10;;;;;;;;;;5068290;28;20040;-66
2022/08/17 12:55:00;;;;;;;5.47;4.50;;;;;;;;;;5061657;28;20167;-67
2022/08/17 12:57:31;;;;;;;7.05;4.63;;;;;;;;;;5069138;28;20056;-66
2022/08/17 13:00:18;;;;;;;8.07;4.45;;;;;;;;;;5068793;28;20025;-66
2022/08/17 13:02:47;;;;;;;6.20;4.30;;;;;;;;;;5067711;28;20032;-67
2022/08/17 13:05:34;;;;;;;12.73;5.00;;;;;;;;;;5069052;28;20433;-67
2022/08/17 13:08:04;;;;;;;12.50;4.65;;;;;;;;;;5068931;28;20028;-65
2022/08/17 13:10:35;;;;;;;6.70;4.60;;;;;;;;;;5068866;28;20039;-66
2022/08/17 13:13:04;;;;;;;6.82;4.68;;;;;;;;;;5068684;28;20314;-67
2022/08/17 13:15:36;;;;;;;8.88;5.07;;;;;;;;;;5067609;28;20028;-67
2022/08/17 13:18:08;;;;;;;7.10;4.75;;;;;;;;;;5068920;28;20070;-67
2022/08/17 13:20:35;;;;;;;6.95;4.85;;;;;;;;;;5068894;28;20036;-63
2022/08/17 13:23:05;;;;;;;11.45;4.63;;;;;;;;;;5068563;28;20028;-65
2022/08/17 13:25:31;;;;;;;7.15;4.63;;;;;;;;;;5068675;28;20047;-64
2022/08/17 13:27:57;;;;;;;8.30;4.55;;;;;;;;;;5068066;28;20040;-66
2022/08/17 13:30:31;;;;;;;7.00;4.63;;;;;;;;;;5068260;28;20565;-64
2022/08/17 13:32:57;;;;;;;8.30;4.57;;;;;;;;;;5068292;28;20130;-64
2022/08/17 13:35:42;;;;;;;7.10;4.55;;;;;;;;;;5068613;28;20031;-66
2022/08/17 13:38:32;;;;;;;6.57;4.65;;;;;;;;;;5068570;28;20040;-65
2022/08/17 13:40:58;;;;;;;7.78;5.10;;;;;;;;;;5067811;28;20025;-65
2022/08/17 13:43:45;;;;;;;8.30;5.70;;;;;;;;;;5068521;28;20033;-66
2022/08/17 13:46:20;;;;;;;8.02;4.50;;;;;;;;;;5068399;28;20036;-66
2022/08/17 13:48:57;;;;;;;6.72;4.95;;;;;;;;;;5068151;28;20028;-66
2022/08/17 13:51:26;;;;;;;10.80;5.72;;;;;;;;;;5068355;28;20483;-65
2022/08/17 13:53:56;;;;;;;9.40;4.88;;;;;;;;;;5068138;28;20423;-63
2022/08/17 13:57:01;;;;;;;5.40;4.50;;;;;;;;;;5068238;28;20103;-63
2022/08/17 13:59:42;;;;;;;8.07;4.72;;;;;;;;;;5045755;28;20037;-65
2022/08/17 14:02:08;;;;;;;7.07;4.38;;;;;;;;;;5045845;28;20562;-65
2022/08/17 14:04:35;;;;;;;9.57;4.80;;;;;;;;;;5046054;28;20495;-64
2022/08/17 14:07:23;;;;;;;7.25;5.03;;;;;;;;;;5045478;28;20091;-64
2022/08/17 14:09:53;;;;;;;8.38;4.90;;;;;;;;;;5045411;28;20033;-64
2022/08/17 14:12:23;;;;;;;6.43;4.88;;;;;;;;;;5045857;28;20037;-64
2022/08/17 14:14:50;;;;;;;5.38;4.72;;;;;;;;;;5046305;28;20040;-63
2022/08/17 14:17:16;;;;;;;6.20;4.78;;;;;;;;;;5045803;28;20100;-64
2022/08/17 14:19:41;;;;;;;6.57;5.40;;;;;;;;;;5045838;28;20087;-65
2022/08/17 14:22:22;;;;;;;10.00;5.88;;;;;;;;;;5045688;28;20029;-64
2022/08/17 14:24:50;;;;;;;9.20;5.70;;;;;;;;;;5045860;28;20495;-64
2022/08/17 14:27:17;;;;;;;8.90;5.50;;;;;;;;;;5052752;28;20037;-64
2022/08/17 14:29:42;;;;;;;8.70;5.38;;;;;;;;;;5053822;28;20083;-66
2022/08/17 14:32:30;;;;;;;7.22;5.28;;;;;;;;;;5053730;28;20033;-65
2022/08/17 14:34:56;;;;;;;5.97;5.38;;;;;;;;;;5075599;28;20479;-66
2022/08/17 14:37:25;;;;;;;6.50;5.35;;;;;;;;;;5072722;28;20376;-64
2022/08/17 14:39:54;;;;;;;11.23;5.50;;;;;;;;;;5075641;28;20104;-64
2022/08/17 14:42:23;;;;;;;8.20;5.50;;;;;;;;;;5075528;28;20120;-64
2022/08/17 14:44:50;;;;;;;9.55;5.40;;;;;;;;;;5075629;28;20491;-64
2022/08/17 14:47:15;;;;;;;9.25;5.47;;;;;;;;;;5075824;28;20479;-66
2022/08/17 14:49:42;;;;;;;8.52;5.88;;;;;;;;;;5075785;28;20017;-64
2022/08/17 14:52:11;;;;;;;10.38;5.90;;;;;;;;;;5075437;28;20407;-65
2022/08/17 14:54:37;;;;;;;7.18;5.85;;;;;;;;;;5075194;28;20036;-65
2022/08/17 14:57:03;;;;;;;6.30;5.13;;;;;;;;;;5075543;28;20029;-64
2022/08/17 14:59:30;;;;;;;11.13;5.72;;;;;;;;;;5075709;28;20470;-63
2022/08/17 15:01:56;;;;;;;7.28;5.72;;;;;;;;;;5075414;28;20404;-63
2022/08/17 15:04:23;;;;;;;9.43;6.30;;;;;;;;;;5075527;28;20030;-64
2022/08/17 15:06:48;;;;;;;10.50;6.18;;;;;;;;;;5075179;28;20027;-63
2022/08/17 15:09:14;;;;;;;10.13;6.22;;;;;;;;;;5073727;28;20025;-66
2022/08/17 15:11:40;;;;;;;6.90;5.70;;;;;;;;;;5075187;28;20036;-66
2022/08/17 15:14:06;;;;;;;9.68;6.50;;;;;;;;;;5075226;28;20033;-63
2022/08/17 15:16:35;;;;;;;11.50;6.45;;;;;;;;;;5075114;28;20047;-64
2022/08/17 15:19:05;;;;;;;13.43;8.13;;;;;;;;;;5075098;28;20493;-64
2022/08/17 15:21:34;;;;;;;10.63;7.30;;;;;;;;;;5066071;28;20111;-63
2022/08/17 15:24:01;;;;;;;11.35;6.18;;;;;;;;;;5061577;28;20025;-66
2022/08/17 15:26:26;;;;;;;8.77;5.75;;;;;;;;;;5067716;28;20386;-63
2022/08/17 15:28:54;;;;;;;9.60;5.95;;;;;;;;;;5064896;28;20025;-65
2022/08/17 15:31:20;;;;;;;7.97;5.80;;;;;;;;;;5073369;28;20025;-65
2022/08/17 15:33:47;;;;;;;8.55;6.22;;;;;;;;;;5074887;28;20469;-66